sensor_id;sensor_type;location;lat;lon;timestamp;P1;durP1;ratioP1;P2;durP2;ratioP2
18082;SDS011;9168;51.194;6.840;2023-06-04T00:00:07;6.82;;;1.40;;
18082;SDS011;9168;51.194;6.840;2023-06-04T00:02:34;5.28;;;1.30;;
18082;SDS011;9168;51.194;6.840;2023-06-04T00:05:02;5.03;;;1.38;;
18082;SDS011;9168;51.194;6.840;2023-06-04T00:07:30;3.38;;;1.50;;
18082;SDS011;9168;51.194;6.840;2023-06-04T00:09:56;5.07;;;1.30;;
18082;SDS011;9168;51.194;6.840;2023-06-04T00:12:23;3.65;;;1.25;;
18082;SDS011;9168;51.194;6.840;2023-06-04T00:14:50;4.13;;;1.20;;
18082;SDS011;9168;51.194;6.840;2023-06-04T00:17:17;8.45;;;1.45;;
18082;SDS011;9168;51.194;6.840;2023-06-04T00:19:44;4.57;;;1.48;;
18082;SDS011;9168;51.194;6.840;2023-06-04T00:22:12;6.82;;;1.65;;
18082;SDS011;9168;51.194;6.840;2023-06-04T00:24:39;5.53;;;1.50;;
18082;SDS011;9168;51.194;6.840;2023-06-04T00:27:06;7.82;;;1.70;;
18082;SDS011;9168;51.194;6.840;2023-06-04T00:29:33;2.75;;;1.33;;
18082;SDS011;9168;51.194;6.840;2023-06-04T00:32:00;3.15;;;1.55;;
18082;SDS011;9168;51.194;6.840;2023-06-04T00:34:28;1.73;;;1.20;;
18082;SDS011;9168;51.194;6.840;2023-06-04T00:36:55;4.13;;;1.70;;
18082;SDS011;9168;51.194;6.840;2023-06-04T00:39:23;4.20;;;1.80;;
18082;SDS011;9168;51.194;6.840;2023-06-04T00:41:50;3.58;;;1.80;;
18082;SDS011;9168;51.194;6.840;2023-06-04T00:44:17;3.97;;;1.70;;
18082;SDS011;9168;51.194;6.840;2023-06-04T00:46:46;8.35;;;1.80;;
18082;SDS011;9168;51.194;6.840;2023-06-04T00:49:14;3.33;;;1.73;;
18082;SDS011;9168;51.194;6.840;2023-06-04T00:51:41;3.65;;;1.77;;
18082;SDS011;9168;51.194;6.840;2023-06-04T00:54:08;4.65;;;1.85;;
18082;SDS011;9168;51.194;6.840;2023-06-04T00:56:36;3.85;;;1.70;;
18082;SDS011;9168;51.194;6.840;2023-06-04T00:59:04;3.45;;;1.52;;
18082;SDS011;9168;51.194;6.840;2023-06-04T01:01:35;3.55;;;1.77;;
18082;SDS011;9168;51.194;6.840;2023-06-04T01:04:12;5.90;;;1.92;;
18082;SDS011;9168;51.194;6.840;2023-06-04T01:06:45;4.57;;;1.60;;
18082;SDS011;9168;51.194;6.840;2023-06-04T01:09:16;2.83;;;1.55;;
18082;SDS011;9168;51.194;6.840;2023-06-04T01:11:46;5.63;;;1.73;;
18082;SDS011;9168;51.194;6.840;2023-06-04T01:14:13;5.93;;;1.67;;
18082;SDS011;9168;51.194;6.840;2023-06-04T01:16:42;6.15;;;1.75;;
18082;SDS011;9168;51.194;6.840;2023-06-04T01:19:19;5.18;;;1.58;;
18082;SDS011;9168;51.194;6.840;2023-06-04T01:22:00;3.88;;;1.67;;
18082;SDS011;9168;51.194;6.840;2023-06-04T01:24:30;4.15;;;1.65;;
18082;SDS011;9168;51.194;6.840;2023-06-04T01:27:04;3.78;;;1.60;;
18082;SDS011;9168;51.194;6.840;2023-06-04T01:29:32;3.83;;;1.70;;
18082;SDS011;9168;51.194;6.840;2023-06-04T01:32:01;5.32;;;1.63;;
18082;SDS011;9168;51.194;6.840;2023-06-04T01:34:30;8.05;;;1.70;;
18082;SDS011;9168;51.194;6.840;2023-06-04T01:36:57;4.43;;;1.50;;
18082;SDS011;9168;51.194;6.840;2023-06-04T01:39:23;3.38;;;1.55;;
18082;SDS011;9168;51.194;6.840;2023-06-04T01:41:50;3.88;;;1.50;;
18082;SDS011;9168;51.194;6.840;2023-06-04T01:44:18;12.13;;;1.58;;
18082;SDS011;9168;51.194;6.840;2023-06-04T01:46:45;3.55;;;1.70;;
18082;SDS011;9168;51.194;6.840;2023-06-04T01:49:12;4.05;;;1.52;;
18082;SDS011;9168;51.194;6.840;2023-06-04T01:51:39;4.90;;;1.67;;
18082;SDS011;9168;51.194;6.840;2023-06-04T01:54:06;5.47;;;1.40;;
18082;SDS011;9168;51.194;6.840;2023-06-04T01:56:33;2.78;;;1.45;;
18082;SDS011;9168;51.194;6.840;2023-06-04T01:59:00;2.95;;;1.38;;
18082;SDS011;9168;51.194;6.840;2023-06-04T02:01:28;5.43;;;1.52;;
18082;SDS011;9168;51.194;6.840;2023-06-04T02:03:55;3.47;;;1.50;;
18082;SDS011;9168;51.194;6.840;2023-06-04T02:06:22;2.97;;;1.30;;
18082;SDS011;9168;51.194;6.840;2023-06-04T02:08:50;6.85;;;1.67;;
18082;SDS011;9168;51.194;6.840;2023-06-04T02:11:19;2.50;;;1.45;;
18082;SDS011;9168;51.194;6.840;2023-06-04T02:13:46;5.82;;;1.60;;
18082;SDS011;9168;51.194;6.840;2023-06-04T02:16:12;4.90;;;1.52;;
18082;SDS011;9168;51.194;6.840;2023-06-04T02:18:41;9.10;;;2.15;;
18082;SDS011;9168;51.194;6.840;2023-06-04T02:21:07;5.47;;;1.30;;
18082;SDS011;9168;51.194;6.840;2023-06-04T02:23:34;2.67;;;1.58;;
18082;SDS011;9168;51.194;6.840;2023-06-04T02:26:01;5.72;;;1.70;;
18082;SDS011;9168;51.194;6.840;2023-06-04T02:28:28;2.28;;;1.33;;
18082;SDS011;9168;51.194;6.840;2023-06-04T02:30:55;4.05;;;1.75;;
18082;SDS011;9168;51.194;6.840;2023-06-04T02:33:22;3.67;;;1.80;;
18082;SDS011;9168;51.194;6.840;2023-06-04T02:35:50;5.88;;;1.83;;
18082;SDS011;9168;51.194;6.840;2023-06-04T02:38:17;3.10;;;1.48;;
18082;SDS011;9168;51.194;6.840;2023-06-04T02:40:44;4.90;;;1.98;;
18082;SDS011;9168;51.194;6.840;2023-06-04T02:43:10;8.23;;;1.92;;
18082;SDS011;9168;51.194;6.840;2023-06-04T02:45:37;5.00;;;1.90;;
18082;SDS011;9168;51.194;6.840;2023-06-04T02:48:04;7.57;;;1.95;;
18082;SDS011;9168;51.194;6.840;2023-06-04T02:50:31;3.33;;;1.88;;
18082;SDS011;9168;51.194;6.840;2023-06-04T02:52:59;3.60;;;1.60;;
18082;SDS011;9168;51.194;6.840;2023-06-04T02:55:26;3.80;;;1.60;;
18082;SDS011;9168;51.194;6.840;2023-06-04T02:57:53;4.75;;;1.83;;
18082;SDS011;9168;51.194;6.840;2023-06-04T03:00:21;3.90;;;1.73;;
18082;SDS011;9168;51.194;6.840;2023-06-04T03:02:48;4.43;;;2.05;;
18082;SDS011;9168;51.194;6.840;2023-06-04T03:05:15;5.75;;;1.83;;
18082;SDS011;9168;51.194;6.840;2023-06-04T03:07:43;2.83;;;1.60;;
18082;SDS011;9168;51.194;6.840;2023-06-04T03:10:13;6.57;;;2.00;;
18082;SDS011;9168;51.194;6.840;2023-06-04T03:12:42;3.53;;;1.85;;
18082;SDS011;9168;51.194;6.840;2023-06-04T03:15:09;6.68;;;2.20;;
18082;SDS011;9168;51.194;6.840;2023-06-04T03:17:37;4.88;;;1.60;;
18082;SDS011;9168;51.194;6.840;2023-06-04T03:20:04;4.05;;;1.75;;
18082;SDS011;9168;51.194;6.840;2023-06-04T03:22:32;4.90;;;1.85;;
18082;SDS011;9168;51.194;6.840;2023-06-04T03:25:00;6.13;;;2.08;;
18082;SDS011;9168;51.194;6.840;2023-06-04T03:27:30;2.80;;;1.55;;
18082;SDS011;9168;51.194;6.840;2023-06-04T03:29:57;15.43;;;2.38;;
18082;SDS011;9168;51.194;6.840;2023-06-04T03:32:24;5.38;;;1.98;;
18082;SDS011;9168;51.194;6.840;2023-06-04T03:34:51;4.30;;;1.95;;
18082;SDS011;9168;51.194;6.840;2023-06-04T03:37:17;5.65;;;1.63;;
18082;SDS011;9168;51.194;6.840;2023-06-04T03:39:44;10.60;;;1.80;;
18082;SDS011;9168;51.194;6.840;2023-06-04T03:42:11;6.53;;;1.80;;
18082;SDS011;9168;51.194;6.840;2023-06-04T03:44:39;5.13;;;1.75;;
18082;SDS011;9168;51.194;6.840;2023-06-04T03:47:06;4.10;;;1.83;;
18082;SDS011;9168;51.194;6.840;2023-06-04T03:49:33;5.25;;;2.08;;
18082;SDS011;9168;51.194;6.840;2023-06-04T03:52:00;4.15;;;1.90;;
18082;SDS011;9168;51.194;6.840;2023-06-04T03:54:27;10.93;;;1.98;;
18082;SDS011;9168;51.194;6.840;2023-06-04T03:56:54;4.60;;;1.70;;
18082;SDS011;9168;51.194;6.840;2023-06-04T03:59:21;7.20;;;2.03;;
18082;SDS011;9168;51.194;6.840;2023-06-04T04:01:49;6.68;;;1.73;;
18082;SDS011;9168;51.194;6.840;2023-06-04T04:04:16;7.50;;;1.73;;
18082;SDS011;9168;51.194;6.840;2023-06-04T04:06:43;6.22;;;2.65;;
18082;SDS011;9168;51.194;6.840;2023-06-04T04:09:09;3.80;;;1.85;;
18082;SDS011;9168;51.194;6.840;2023-06-04T04:11:36;4.88;;;1.98;;
18082;SDS011;9168;51.194;6.840;2023-06-04T04:14:03;5.60;;;1.70;;
18082;SDS011;9168;51.194;6.840;2023-06-04T04:16:30;4.30;;;1.98;;
18082;SDS011;9168;51.194;6.840;2023-06-04T04:18:58;5.47;;;1.77;;
18082;SDS011;9168;51.194;6.840;2023-06-04T04:21:28;4.55;;;1.92;;
18082;SDS011;9168;51.194;6.840;2023-06-04T04:23:55;7.25;;;2.08;;
18082;SDS011;9168;51.194;6.840;2023-06-04T04:26:22;8.40;;;2.33;;
18082;SDS011;9168;51.194;6.840;2023-06-04T04:28:52;10.73;;;2.30;;
18082;SDS011;9168;51.194;6.840;2023-06-04T04:31:23;7.43;;;1.98;;
18082;SDS011;9168;51.194;6.840;2023-06-04T04:33:50;5.00;;;1.95;;
18082;SDS011;9168;51.194;6.840;2023-06-04T04:36:18;5.47;;;1.88;;
18082;SDS011;9168;51.194;6.840;2023-06-04T04:38:45;10.32;;;2.20;;
18082;SDS011;9168;51.194;6.840;2023-06-04T04:41:19;5.47;;;1.90;;
18082;SDS011;9168;51.194;6.840;2023-06-04T04:43:46;4.40;;;2.20;;
18082;SDS011;9168;51.194;6.840;2023-06-04T04:46:13;4.47;;;1.52;;
18082;SDS011;9168;51.194;6.840;2023-06-04T04:48:39;3.25;;;1.80;;
18082;SDS011;9168;51.194;6.840;2023-06-04T04:51:07;12.90;;;2.00;;
18082;SDS011;9168;51.194;6.840;2023-06-04T04:53:35;6.68;;;2.20;;
18082;SDS011;9168;51.194;6.840;2023-06-04T04:56:02;11.85;;;2.30;;
18082;SDS011;9168;51.194;6.840;2023-06-04T04:58:29;10.68;;;2.15;;
18082;SDS011;9168;51.194;6.840;2023-06-04T05:00:56;4.57;;;2.28;;
18082;SDS011;9168;51.194;6.840;2023-06-04T05:03:23;8.13;;;2.17;;
18082;SDS011;9168;51.194;6.840;2023-06-04T05:05:50;5.72;;;1.88;;
18082;SDS011;9168;51.194;6.840;2023-06-04T05:08:16;3.22;;;1.55;;
18082;SDS011;9168;51.194;6.840;2023-06-04T05:10:45;5.43;;;1.85;;
18082;SDS011;9168;51.194;6.840;2023-06-04T05:13:12;11.73;;;1.98;;
18082;SDS011;9168;51.194;6.840;2023-06-04T05:15:38;4.47;;;1.73;;
18082;SDS011;9168;51.194;6.840;2023-06-04T05:18:07;1.90;;;1.30;;
18082;SDS011;9168;51.194;6.840;2023-06-04T05:20:34;4.05;;;1.85;;
18082;SDS011;9168;51.194;6.840;2023-06-04T05:23:02;3.47;;;1.60;;
18082;SDS011;9168;51.194;6.840;2023-06-04T05:25:29;5.80;;;1.73;;
18082;SDS011;9168;51.194;6.840;2023-06-04T05:27:57;5.95;;;1.80;;
18082;SDS011;9168;51.194;6.840;2023-06-04T05:30:24;5.75;;;1.52;;
18082;SDS011;9168;51.194;6.840;2023-06-04T05:32:51;3.20;;;1.80;;
18082;SDS011;9168;51.194;6.840;2023-06-04T05:35:18;6.65;;;2.00;;
18082;SDS011;9168;51.194;6.840;2023-06-04T05:37:45;3.10;;;1.67;;
18082;SDS011;9168;51.194;6.840;2023-06-04T05:40:18;4.13;;;1.95;;
18082;SDS011;9168;51.194;6.840;2023-06-04T05:42:46;4.18;;;1.65;;
18082;SDS011;9168;51.194;6.840;2023-06-04T05:45:14;4.13;;;1.58;;
18082;SDS011;9168;51.194;6.840;2023-06-04T05:47:41;4.88;;;1.70;;
18082;SDS011;9168;51.194;6.840;2023-06-04T05:50:09;6.95;;;1.70;;
18082;SDS011;9168;51.194;6.840;2023-06-04T05:52:36;7.13;;;1.60;;
18082;SDS011;9168;51.194;6.840;2023-06-04T05:55:03;4.55;;;1.58;;
18082;SDS011;9168;51.194;6.840;2023-06-04T05:57:32;3.70;;;1.60;;
18082;SDS011;9168;51.194;6.840;2023-06-04T05:59:59;9.35;;;1.80;;
18082;SDS011;9168;51.194;6.840;2023-06-04T06:02:27;5.20;;;1.67;;
18082;SDS011;9168;51.194;6.840;2023-06-04T06:04:55;6.63;;;1.63;;
18082;SDS011;9168;51.194;6.840;2023-06-04T06:07:22;4.30;;;1.80;;
18082;SDS011;9168;51.194;6.840;2023-06-04T06:09:49;6.85;;;1.85;;
18082;SDS011;9168;51.194;6.840;2023-06-04T06:12:16;4.68;;;1.90;;
18082;SDS011;9168;51.194;6.840;2023-06-04T06:14:43;6.68;;;2.33;;
18082;SDS011;9168;51.194;6.840;2023-06-04T06:17:09;4.93;;;1.80;;
18082;SDS011;9168;51.194;6.840;2023-06-04T06:19:38;6.20;;;1.75;;
18082;SDS011;9168;51.194;6.840;2023-06-04T06:22:05;6.72;;;2.15;;
18082;SDS011;9168;51.194;6.840;2023-06-04T06:24:32;4.25;;;1.77;;
18082;SDS011;9168;51.194;6.840;2023-06-04T06:26:59;8.73;;;1.80;;
18082;SDS011;9168;51.194;6.840;2023-06-04T06:29:30;5.45;;;1.55;;
18082;SDS011;9168;51.194;6.840;2023-06-04T06:31:56;5.90;;;1.90;;
18082;SDS011;9168;51.194;6.840;2023-06-04T06:34:24;4.32;;;1.85;;
18082;SDS011;9168;51.194;6.840;2023-06-04T06:36:52;7.68;;;1.95;;
18082;SDS011;9168;51.194;6.840;2023-06-04T06:39:19;5.63;;;1.80;;
18082;SDS011;9168;51.194;6.840;2023-06-04T06:41:46;4.63;;;1.83;;
18082;SDS011;9168;51.194;6.840;2023-06-04T06:44:13;5.80;;;1.75;;
18082;SDS011;9168;51.194;6.840;2023-06-04T06:46:40;6.13;;;2.20;;
18082;SDS011;9168;51.194;6.840;2023-06-04T06:49:07;3.30;;;1.80;;
18082;SDS011;9168;51.194;6.840;2023-06-04T06:51:34;3.63;;;1.70;;
18082;SDS011;9168;51.194;6.840;2023-06-04T06:54:02;3.75;;;1.75;;
18082;SDS011;9168;51.194;6.840;2023-06-04T06:56:29;5.68;;;1.98;;
18082;SDS011;9168;51.194;6.840;2023-06-04T06:58:56;7.85;;;2.00;;
18082;SDS011;9168;51.194;6.840;2023-06-04T07:01:23;5.05;;;1.95;;
18082;SDS011;9168;51.194;6.840;2023-06-04T07:03:50;4.95;;;1.90;;
18082;SDS011;9168;51.194;6.840;2023-06-04T07:06:17;4.97;;;2.28;;
18082;SDS011;9168;51.194;6.840;2023-06-04T07:08:44;4.93;;;2.20;;
18082;SDS011;9168;51.194;6.840;2023-06-04T07:11:14;5.78;;;1.90;;
18082;SDS011;9168;51.194;6.840;2023-06-04T07:13:42;6.13;;;2.13;;
18082;SDS011;9168;51.194;6.840;2023-06-04T07:16:08;5.10;;;2.08;;
18082;SDS011;9168;51.194;6.840;2023-06-04T07:18:35;4.07;;;2.17;;
18082;SDS011;9168;51.194;6.840;2023-06-04T07:21:02;3.35;;;2.05;;
18082;SDS011;9168;51.194;6.840;2023-06-04T07:23:29;2.97;;;2.05;;
18082;SDS011;9168;51.194;6.840;2023-06-04T07:25:56;4.18;;;2.47;;
18082;SDS011;9168;51.194;6.840;2023-06-04T07:28:24;6.75;;;2.30;;
18082;SDS011;9168;51.194;6.840;2023-06-04T07:30:51;4.68;;;2.22;;
18082;SDS011;9168;51.194;6.840;2023-06-04T07:33:18;4.28;;;2.05;;
18082;SDS011;9168;51.194;6.840;2023-06-04T07:35:45;4.80;;;2.38;;
18082;SDS011;9168;51.194;6.840;2023-06-04T07:38:12;10.25;;;3.13;;
18082;SDS011;9168;51.194;6.840;2023-06-04T07:40:39;4.88;;;2.42;;
18082;SDS011;9168;51.194;6.840;2023-06-04T07:43:05;7.72;;;2.33;;
18082;SDS011;9168;51.194;6.840;2023-06-04T07:45:34;10.05;;;2.50;;
18082;SDS011;9168;51.194;6.840;2023-06-04T07:48:00;9.30;;;2.67;;
18082;SDS011;9168;51.194;6.840;2023-06-04T07:50:27;9.55;;;2.58;;
18082;SDS011;9168;51.194;6.840;2023-06-04T07:52:55;8.23;;;1.98;;
18082;SDS011;9168;51.194;6.840;2023-06-04T07:55:21;8.43;;;2.63;;
18082;SDS011;9168;51.194;6.840;2023-06-04T07:57:49;4.72;;;2.40;;
18082;SDS011;9168;51.194;6.840;2023-06-04T08:00:15;6.22;;;2.00;;
18082;SDS011;9168;51.194;6.840;2023-06-04T08:02:44;5.13;;;2.42;;
18082;SDS011;9168;51.194;6.840;2023-06-04T08:05:11;6.93;;;2.55;;
18082;SDS011;9168;51.194;6.840;2023-06-04T08:07:39;6.13;;;2.55;;
18082;SDS011;9168;51.194;6.840;2023-06-04T08:10:07;6.05;;;2.45;;
18082;SDS011;9168;51.194;6.840;2023-06-04T08:12:34;5.50;;;2.20;;
18082;SDS011;9168;51.194;6.840;2023-06-04T08:15:01;5.05;;;2.47;;
18082;SDS011;9168;51.194;6.840;2023-06-04T08:17:29;4.93;;;2.63;;
18082;SDS011;9168;51.194;6.840;2023-06-04T08:19:57;5.25;;;2.33;;
18082;SDS011;9168;51.194;6.840;2023-06-04T08:22:24;5.22;;;2.38;;
18082;SDS011;9168;51.194;6.840;2023-06-04T08:24:52;5.78;;;2.10;;
18082;SDS011;9168;51.194;6.840;2023-06-04T08:27:19;9.70;;;2.40;;
18082;SDS011;9168;51.194;6.840;2023-06-04T08:29:46;9.35;;;2.50;;
18082;SDS011;9168;51.194;6.840;2023-06-04T08:32:13;5.78;;;2.25;;
18082;SDS011;9168;51.194;6.840;2023-06-04T08:34:39;9.93;;;2.50;;
18082;SDS011;9168;51.194;6.840;2023-06-04T08:37:08;13.75;;;2.58;;
18082;SDS011;9168;51.194;6.840;2023-06-04T08:39:35;6.50;;;2.30;;
18082;SDS011;9168;51.194;6.840;2023-06-04T08:42:03;7.25;;;2.05;;
18082;SDS011;9168;51.194;6.840;2023-06-04T08:44:33;3.97;;;2.28;;
18082;SDS011;9168;51.194;6.840;2023-06-04T08:47:02;10.18;;;2.50;;
18082;SDS011;9168;51.194;6.840;2023-06-04T08:49:32;7.40;;;2.58;;
18082;SDS011;9168;51.194;6.840;2023-06-04T08:52:04;10.50;;;2.70;;
18082;SDS011;9168;51.194;6.840;2023-06-04T08:54:33;10.48;;;2.53;;
18082;SDS011;9168;51.194;6.840;2023-06-04T08:57:00;5.18;;;2.25;;
18082;SDS011;9168;51.194;6.840;2023-06-04T08:59:27;8.45;;;2.40;;
18082;SDS011;9168;51.194;6.840;2023-06-04T09:01:54;11.13;;;2.30;;
18082;SDS011;9168;51.194;6.840;2023-06-04T09:04:21;2.92;;;1.90;;
18082;SDS011;9168;51.194;6.840;2023-06-04T09:06:49;7.03;;;2.10;;
18082;SDS011;9168;51.194;6.840;2023-06-04T09:09:17;6.85;;;2.40;;
18082;SDS011;9168;51.194;6.840;2023-06-04T09:11:49;7.45;;;2.20;;
18082;SDS011;9168;51.194;6.840;2023-06-04T09:14:18;4.70;;;2.35;;
18082;SDS011;9168;51.194;6.840;2023-06-04T09:16:46;11.82;;;2.40;;
18082;SDS011;9168;51.194;6.840;2023-06-04T09:19:14;9.43;;;2.45;;
18082;SDS011;9168;51.194;6.840;2023-06-04T09:21:48;10.63;;;2.47;;
18082;SDS011;9168;51.194;6.840;2023-06-04T09:24:16;9.02;;;2.53;;
18082;SDS011;9168;51.194;6.840;2023-06-04T09:26:43;5.68;;;2.17;;
18082;SDS011;9168;51.194;6.840;2023-06-04T09:29:11;11.05;;;2.20;;
18082;SDS011;9168;51.194;6.840;2023-06-04T09:31:38;11.60;;;2.35;;
18082;SDS011;9168;51.194;6.840;2023-06-04T09:34:05;9.85;;;2.35;;
18082;SDS011;9168;51.194;6.840;2023-06-04T09:36:32;11.93;;;2.30;;
18082;SDS011;9168;51.194;6.840;2023-06-04T09:39:00;4.38;;;2.20;;
18082;SDS011;9168;51.194;6.840;2023-06-04T09:41:28;7.57;;;2.05;;
18082;SDS011;9168;51.194;6.840;2023-06-04T09:44:01;6.03;;;1.98;;
18082;SDS011;9168;51.194;6.840;2023-06-04T09:46:37;3.65;;;2.35;;
18082;SDS011;9168;51.194;6.840;2023-06-04T09:49:04;7.65;;;2.45;;
18082;SDS011;9168;51.194;6.840;2023-06-04T09:51:31;8.93;;;2.28;;
18082;SDS011;9168;51.194;6.840;2023-06-04T09:53:59;4.10;;;2.15;;
18082;SDS011;9168;51.194;6.840;2023-06-04T09:56:27;8.77;;;2.40;;
18082;SDS011;9168;51.194;6.840;2023-06-04T09:58:54;9.05;;;2.42;;
18082;SDS011;9168;51.194;6.840;2023-06-04T10:01:23;11.35;;;2.35;;
18082;SDS011;9168;51.194;6.840;2023-06-04T10:03:54;7.78;;;2.40;;
18082;SDS011;9168;51.194;6.840;2023-06-04T10:06:22;6.60;;;2.13;;
18082;SDS011;9168;51.194;6.840;2023-06-04T10:08:50;7.28;;;2.78;;
18082;SDS011;9168;51.194;6.840;2023-06-04T10:11:17;11.98;;;2.72;;
18082;SDS011;9168;51.194;6.840;2023-06-04T10:13:48;8.60;;;2.78;;
18082;SDS011;9168;51.194;6.840;2023-06-04T10:16:20;6.75;;;2.40;;
18082;SDS011;9168;51.194;6.840;2023-06-04T10:18:49;4.35;;;2.17;;
18082;SDS011;9168;51.194;6.840;2023-06-04T10:21:21;6.03;;;2.20;;
18082;SDS011;9168;51.194;6.840;2023-06-04T10:23:48;11.98;;;2.47;;
18082;SDS011;9168;51.194;6.840;2023-06-04T10:26:16;10.57;;;2.25;;
18082;SDS011;9168;51.194;6.840;2023-06-04T10:28:43;10.18;;;2.38;;
18082;SDS011;9168;51.194;6.840;2023-06-04T10:31:10;14.52;;;2.50;;
18082;SDS011;9168;51.194;6.840;2023-06-04T10:33:38;6.15;;;2.22;;
18082;SDS011;9168;51.194;6.840;2023-06-04T10:36:17;12.20;;;2.85;;
18082;SDS011;9168;51.194;6.840;2023-06-04T10:38:45;9.98;;;2.35;;
18082;SDS011;9168;51.194;6.840;2023-06-04T10:41:13;7.57;;;2.45;;
18082;SDS011;9168;51.194;6.840;2023-06-04T10:43:41;5.60;;;2.72;;
18082;SDS011;9168;51.194;6.840;2023-06-04T10:46:12;4.43;;;2.60;;
18082;SDS011;9168;51.194;6.840;2023-06-04T10:48:46;12.57;;;2.45;;
18082;SDS011;9168;51.194;6.840;2023-06-04T10:51:14;6.97;;;2.63;;
18082;SDS011;9168;51.194;6.840;2023-06-04T10:53:55;7.63;;;3.15;;
18082;SDS011;9168;51.194;6.840;2023-06-04T10:56:24;12.50;;;2.95;;
18082;SDS011;9168;51.194;6.840;2023-06-04T10:58:51;12.38;;;3.00;;
18082;SDS011;9168;51.194;6.840;2023-06-04T11:01:22;11.18;;;3.30;;
18082;SDS011;9168;51.194;6.840;2023-06-04T11:03:50;16.75;;;3.05;;
18082;SDS011;9168;51.194;6.840;2023-06-04T11:06:18;32.92;;;4.55;;
18082;SDS011;9168;51.194;6.840;2023-06-04T11:08:46;18.98;;;3.05;;
18082;SDS011;9168;51.194;6.840;2023-06-04T11:11:13;7.53;;;3.08;;
18082;SDS011;9168;51.194;6.840;2023-06-04T11:13:41;7.88;;;2.53;;
18082;SDS011;9168;51.194;6.840;2023-06-04T11:16:14;10.93;;;2.70;;
18082;SDS011;9168;51.194;6.840;2023-06-04T11:18:42;9.32;;;3.13;;
18082;SDS011;9168;51.194;6.840;2023-06-04T11:21:09;6.18;;;2.88;;
18082;SDS011;9168;51.194;6.840;2023-06-04T11:23:41;5.10;;;2.60;;
18082;SDS011;9168;51.194;6.840;2023-06-04T11:26:08;7.53;;;3.00;;
18082;SDS011;9168;51.194;6.840;2023-06-04T11:28:35;8.02;;;3.15;;
18082;SDS011;9168;51.194;6.840;2023-06-04T11:31:02;6.38;;;2.85;;
18082;SDS011;9168;51.194;6.840;2023-06-04T11:33:40;11.18;;;2.90;;
18082;SDS011;9168;51.194;6.840;2023-06-04T11:36:08;8.25;;;3.28;;
18082;SDS011;9168;51.194;6.840;2023-06-04T11:38:35;6.03;;;2.75;;
18082;SDS011;9168;51.194;6.840;2023-06-04T11:41:03;7.53;;;3.13;;
18082;SDS011;9168;51.194;6.840;2023-06-04T11:43:31;8.82;;;2.97;;
18082;SDS011;9168;51.194;6.840;2023-06-04T11:46:00;8.30;;;3.00;;
18082;SDS011;9168;51.194;6.840;2023-06-04T11:48:31;8.98;;;2.90;;
18082;SDS011;9168;51.194;6.840;2023-06-04T11:51:04;14.15;;;2.90;;
18082;SDS011;9168;51.194;6.840;2023-06-04T11:53:32;6.47;;;2.92;;
18082;SDS011;9168;51.194;6.840;2023-06-04T11:55:59;6.65;;;3.00;;
18082;SDS011;9168;51.194;6.840;2023-06-04T11:58:28;7.72;;;3.15;;
18082;SDS011;9168;51.194;6.840;2023-06-04T12:00:55;14.07;;;3.35;;
18082;SDS011;9168;51.194;6.840;2023-06-04T12:03:31;5.20;;;2.83;;
18082;SDS011;9168;51.194;6.840;2023-06-04T12:06:09;5.63;;;2.42;;
18082;SDS011;9168;51.194;6.840;2023-06-04T12:08:47;10.63;;;3.38;;
18082;SDS011;9168;51.194;6.840;2023-06-04T12:11:28;17.58;;;3.20;;
18082;SDS011;9168;51.194;6.840;2023-06-04T12:13:58;5.78;;;2.95;;
18082;SDS011;9168;51.194;6.840;2023-06-04T12:16:26;9.80;;;3.10;;
18082;SDS011;9168;51.194;6.840;2023-06-04T12:19:03;10.70;;;2.88;;
18082;SDS011;9168;51.194;6.840;2023-06-04T12:21:32;8.80;;;2.80;;
18082;SDS011;9168;51.194;6.840;2023-06-04T12:24:05;7.88;;;2.67;;
18082;SDS011;9168;51.194;6.840;2023-06-04T12:26:33;8.88;;;3.08;;
18082;SDS011;9168;51.194;6.840;2023-06-04T12:29:10;4.82;;;2.65;;
18082;SDS011;9168;51.194;6.840;2023-06-04T12:31:38;6.18;;;2.85;;
18082;SDS011;9168;51.194;6.840;2023-06-04T12:34:06;10.77;;;3.15;;
18082;SDS011;9168;51.194;6.840;2023-06-04T12:36:33;8.73;;;2.90;;
18082;SDS011;9168;51.194;6.840;2023-06-04T12:39:01;7.40;;;2.80;;
18082;SDS011;9168;51.194;6.840;2023-06-04T12:41:30;7.05;;;2.92;;
18082;SDS011;9168;51.194;6.840;2023-06-04T12:43:58;5.07;;;3.00;;
18082;SDS011;9168;51.194;6.840;2023-06-04T12:46:27;10.35;;;3.00;;
18082;SDS011;9168;51.194;6.840;2023-06-04T12:48:54;8.23;;;3.10;;
18082;SDS011;9168;51.194;6.840;2023-06-04T12:51:21;8.27;;;3.08;;
18082;SDS011;9168;51.194;6.840;2023-06-04T12:53:48;6.35;;;3.10;;
18082;SDS011;9168;51.194;6.840;2023-06-04T12:56:16;8.82;;;3.10;;
18082;SDS011;9168;51.194;6.840;2023-06-04T12:58:43;10.60;;;3.22;;
18082;SDS011;9168;51.194;6.840;2023-06-04T13:01:10;8.05;;;2.83;;
18082;SDS011;9168;51.194;6.840;2023-06-04T13:03:39;7.70;;;3.45;;
18082;SDS011;9168;51.194;6.840;2023-06-04T13:06:07;6.57;;;3.08;;
18082;SDS011;9168;51.194;6.840;2023-06-04T13:08:34;6.43;;;3.03;;
18082;SDS011;9168;51.194;6.840;2023-06-04T13:11:01;9.80;;;3.10;;
18082;SDS011;9168;51.194;6.840;2023-06-04T13:13:28;18.15;;;3.70;;
18082;SDS011;9168;51.194;6.840;2023-06-04T13:15:55;6.72;;;2.97;;
18082;SDS011;9168;51.194;6.840;2023-06-04T13:18:22;6.63;;;3.03;;
18082;SDS011;9168;51.194;6.840;2023-06-04T13:20:51;5.57;;;3.13;;
18082;SDS011;9168;51.194;6.840;2023-06-04T13:23:18;6.63;;;3.20;;
18082;SDS011;9168;51.194;6.840;2023-06-04T13:25:44;4.68;;;3.10;;
18082;SDS011;9168;51.194;6.840;2023-06-04T13:28:11;7.70;;;3.20;;
18082;SDS011;9168;51.194;6.840;2023-06-04T13:30:38;4.97;;;3.10;;
18082;SDS011;9168;51.194;6.840;2023-06-04T13:33:05;12.27;;;3.30;;
18082;SDS011;9168;51.194;6.840;2023-06-04T13:35:32;7.25;;;3.00;;
18082;SDS011;9168;51.194;6.840;2023-06-04T13:38:01;13.48;;;3.72;;
18082;SDS011;9168;51.194;6.840;2023-06-04T13:40:30;6.00;;;3.60;;
18082;SDS011;9168;51.194;6.840;2023-06-04T13:42:57;10.50;;;3.50;;
18082;SDS011;9168;51.194;6.840;2023-06-04T13:45:24;17.15;;;3.42;;
18082;SDS011;9168;51.194;6.840;2023-06-04T13:47:51;7.40;;;3.10;;
18082;SDS011;9168;51.194;6.840;2023-06-04T13:50:18;9.82;;;3.08;;
18082;SDS011;9168;51.194;6.840;2023-06-04T13:52:45;8.43;;;2.95;;
18082;SDS011;9168;51.194;6.840;2023-06-04T13:55:13;7.18;;;3.30;;
18082;SDS011;9168;51.194;6.840;2023-06-04T13:57:40;3.90;;;2.70;;
18082;SDS011;9168;51.194;6.840;2023-06-04T14:00:08;4.55;;;3.00;;
18082;SDS011;9168;51.194;6.840;2023-06-04T14:02:38;5.22;;;3.08;;
18082;SDS011;9168;51.194;6.840;2023-06-04T14:05:05;11.13;;;3.50;;
18082;SDS011;9168;51.194;6.840;2023-06-04T14:07:32;8.52;;;2.90;;
18082;SDS011;9168;51.194;6.840;2023-06-04T14:10:00;10.95;;;2.78;;
18082;SDS011;9168;51.194;6.840;2023-06-04T14:12:28;4.90;;;3.20;;
18082;SDS011;9168;51.194;6.840;2023-06-04T14:14:55;10.40;;;3.10;;
18082;SDS011;9168;51.194;6.840;2023-06-04T14:17:22;4.80;;;2.97;;
18082;SDS011;9168;51.194;6.840;2023-06-04T14:19:49;7.22;;;3.15;;
18082;SDS011;9168;51.194;6.840;2023-06-04T14:22:16;6.30;;;3.00;;
18082;SDS011;9168;51.194;6.840;2023-06-04T14:24:43;6.53;;;2.60;;
18082;SDS011;9168;51.194;6.840;2023-06-04T14:27:10;12.32;;;3.20;;
18082;SDS011;9168;51.194;6.840;2023-06-04T14:29:38;7.78;;;3.05;;
18082;SDS011;9168;51.194;6.840;2023-06-04T14:32:05;6.25;;;3.40;;
18082;SDS011;9168;51.194;6.840;2023-06-04T14:34:32;12.73;;;3.00;;
18082;SDS011;9168;51.194;6.840;2023-06-04T14:36:59;14.43;;;3.15;;
18082;SDS011;9168;51.194;6.840;2023-06-04T14:39:26;7.07;;;3.25;;
18082;SDS011;9168;51.194;6.840;2023-06-04T14:41:53;12.85;;;3.13;;
18082;SDS011;9168;51.194;6.840;2023-06-04T14:44:20;9.10;;;3.20;;
18082;SDS011;9168;51.194;6.840;2023-06-04T14:46:49;8.20;;;3.25;;
18082;SDS011;9168;51.194;6.840;2023-06-04T14:49:17;6.93;;;3.28;;
18082;SDS011;9168;51.194;6.840;2023-06-04T14:51:44;3.85;;;2.97;;
18082;SDS011;9168;51.194;6.840;2023-06-04T14:54:11;9.30;;;2.83;;
18082;SDS011;9168;51.194;6.840;2023-06-04T14:56:38;6.32;;;3.38;;
18082;SDS011;9168;51.194;6.840;2023-06-04T14:59:05;6.78;;;3.22;;
18082;SDS011;9168;51.194;6.840;2023-06-04T15:01:34;10.55;;;3.00;;
18082;SDS011;9168;51.194;6.840;2023-06-04T15:04:03;12.07;;;3.20;;